createdAt,value
2023-03-31T00:02:02.944Z,8.35
2023-03-31T00:04:32.214Z,8.95
2023-03-31T00:06:59.522Z,9.25
2023-03-31T00:09:26.313Z,5.18
2023-03-31T00:11:53.303Z,6.93
2023-03-31T00:14:21.126Z,10.95
2023-03-31T00:16:47.940Z,9.20
2023-03-31T00:19:18.316Z,7.07
2023-03-31T00:21:46.118Z,7.88
2023-03-31T00:24:13.387Z,6.78
2023-03-31T00:26:40.488Z,8.50
2023-03-31T00:29:08.722Z,7.38
2023-03-31T00:31:36.111Z,5.72
2023-03-31T00:34:03.052Z,4.18
2023-03-31T00:36:30.095Z,7.57
2023-03-31T00:38:59.820Z,5.65
2023-03-31T00:41:28.158Z,7.40
2023-03-31T00:44:18.874Z,9.48
2023-03-31T00:46:52.514Z,10.10
2023-03-31T00:49:27.884Z,11.05
2023-03-31T00:51:57.636Z,4.50
2023-03-31T00:54:26.548Z,8.68
2023-03-31T00:56:55.610Z,9.43
2023-03-31T00:59:27.470Z,9.30
2023-03-31T01:01:54.579Z,10.50
2023-03-31T01:04:23.993Z,5.70
2023-03-31T01:07:09.776Z,8.80
2023-03-31T01:09:38.766Z,5.85
2023-03-31T01:12:08.036Z,11.60
2023-03-31T01:14:35.793Z,6.47
2023-03-31T01:17:02.920Z,7.93
2023-03-31T01:19:57.097Z,6.35
2023-03-31T01:22:49.493Z,7.32
2023-03-31T01:25:33.892Z,8.73
2023-03-31T01:28:15.675Z,10.23
2023-03-31T01:31:03.226Z,8.10
2023-03-31T01:33:50.049Z,12.90
2023-03-31T01:36:22.533Z,4.57
2023-03-31T01:38:52.067Z,4.68
2023-03-31T01:41:21.317Z,5.93
2023-03-31T01:44:08.272Z,8.85
2023-03-31T01:46:40.130Z,4.43
2023-03-31T01:49:17.382Z,7.78
2023-03-31T01:52:11.707Z,4.40
2023-03-31T01:55:24.479Z,7.57
2023-03-31T01:57:55.177Z,7.13
2023-03-31T02:00:29.992Z,4.75
2023-03-31T02:05:35.225Z,6.15
2023-03-31T02:08:09.026Z,6.20
2023-03-31T02:10:36.278Z,7.97
2023-03-31T02:13:04.042Z,4.20
2023-03-31T02:15:38.147Z,3.22
2023-03-31T02:18:11.464Z,4.85
2023-03-31T02:20:42.092Z,4.60
2023-03-31T02:23:10.686Z,5.95
2023-03-31T02:26:07.308Z,5.00
2023-03-31T02:28:34.641Z,4.82
2023-03-31T02:31:19.964Z,5.70
2023-03-31T02:33:47.778Z,10.38
2023-03-31T02:36:14.720Z,7.38
2023-03-31T02:38:50.594Z,5.05
2023-03-31T02:41:17.306Z,3.80
2023-03-31T02:43:43.974Z,7.10
2023-03-31T02:46:11.703Z,4.63
2023-03-31T02:48:41.873Z,5.32
2023-03-31T02:51:08.868Z,5.15
2023-03-31T02:54:06.594Z,4.75
2023-03-31T02:56:59.448Z,5.30
2023-03-31T03:00:09.626Z,5.25
2023-03-31T03:02:55.088Z,5.13
2023-03-31T03:05:37.412Z,9.13
2023-03-31T03:08:04.087Z,9.32
2023-03-31T03:10:53.558Z,4.50
2023-03-31T03:13:45.857Z,6.75
2023-03-31T03:16:19.780Z,5.88
2023-03-31T03:19:05.115Z,3.87
2023-03-31T03:21:32.180Z,7.20
2023-03-31T03:24:00.124Z,7.88
2023-03-31T03:26:28.197Z,7.00
2023-03-31T03:28:56.503Z,6.93
2023-03-31T03:31:24.130Z,7.63
2023-03-31T03:33:51.201Z,7.95
2023-03-31T03:36:18.615Z,5.78
2023-03-31T03:38:45.376Z,6.68
2023-03-31T03:41:12.091Z,11.20
2023-03-31T03:43:38.761Z,12.13
2023-03-31T03:46:06.267Z,10.77
2023-03-31T03:48:33.877Z,5.25
2023-03-31T03:51:01.247Z,6.68
2023-03-31T03:53:28.077Z,5.47
2023-03-31T03:55:54.935Z,7.90
2023-03-31T03:58:21.728Z,4.93
2023-03-31T04:00:48.471Z,7.05
2023-03-31T04:03:15.286Z,6.32
2023-03-31T04:05:42.400Z,7.97
2023-03-31T04:08:09.266Z,5.63
2023-03-31T04:10:36.526Z,7.32
2023-03-31T04:13:03.263Z,11.07
2023-03-31T04:15:30.219Z,5.88
2023-03-31T04:17:58.345Z,8.40
2023-03-31T04:20:30.542Z,10.77
2023-03-31T04:22:57.391Z,8.88
2023-03-31T04:25:24.067Z,9.20
2023-03-31T04:27:54.959Z,9.98
2023-03-31T04:30:30.772Z,8.90
2023-03-31T04:33:04.247Z,9.88
2023-03-31T04:35:49.774Z,9.10
2023-03-31T04:38:21.427Z,10.40
2023-03-31T04:40:49.638Z,12.63
2023-03-31T04:43:17.610Z,11.65
2023-03-31T04:45:44.773Z,10.70
2023-03-31T04:48:11.646Z,16.00
2023-03-31T04:50:38.752Z,10.75
2023-03-31T04:53:05.865Z,15.23
2023-03-31T04:55:33.062Z,8.05
2023-03-31T04:58:00.198Z,8.10
2023-03-31T05:00:26.950Z,10.30
2023-03-31T05:02:53.775Z,9.68
2023-03-31T05:05:21.437Z,13.95
2023-03-31T05:07:48.217Z,15.43
2023-03-31T05:10:14.943Z,12.75
2023-03-31T05:12:41.633Z,22.85
2023-03-31T05:15:08.938Z,12.63
2023-03-31T05:17:36.677Z,11.15
2023-03-31T05:20:06.752Z,14.38
2023-03-31T05:22:37.989Z,13.93
2023-03-31T05:25:06.937Z,15.02
2023-03-31T05:27:34.640Z,11.05
2023-03-31T05:30:02.394Z,13.57
2023-03-31T05:32:29.360Z,8.75
2023-03-31T05:34:58.758Z,13.82
2023-03-31T05:37:26.046Z,12.30
2023-03-31T05:39:53.608Z,12.43
2023-03-31T05:42:21.169Z,8.43
2023-03-31T05:44:47.851Z,16.38
2023-03-31T05:47:14.954Z,11.60
2023-03-31T05:49:41.797Z,10.52
2023-03-31T05:52:09.222Z,12.50
2023-03-31T05:54:36.092Z,11.90
2023-03-31T05:57:03.321Z,10.07
2023-03-31T05:59:30.684Z,11.60
2023-03-31T06:01:58.424Z,11.98
2023-03-31T06:04:25.336Z,14.02
2023-03-31T06:06:52.075Z,11.98
2023-03-31T06:09:18.761Z,12.35
2023-03-31T06:11:46.104Z,12.18
2023-03-31T06:14:13.002Z,17.23
2023-03-31T06:16:39.745Z,9.70
2023-03-31T06:19:06.707Z,18.20
2023-03-31T06:21:34.829Z,13.63
2023-03-31T06:24:01.785Z,12.75
2023-03-31T06:26:28.621Z,9.75
2023-03-31T06:28:55.572Z,8.40
2023-03-31T06:31:24.213Z,10.15
2023-03-31T06:33:51.175Z,13.68
2023-03-31T06:36:20.259Z,12.50
2023-03-31T06:38:47.877Z,12.50
2023-03-31T06:41:16.150Z,10.30
2023-03-31T06:43:43.304Z,12.38
2023-03-31T06:46:11.131Z,7.97
2023-03-31T06:48:37.990Z,5.18
2023-03-31T06:51:06.631Z,3.45
2023-03-31T06:53:33.895Z,4.85
2023-03-31T06:56:01.152Z,4.43
2023-03-31T06:58:31.082Z,4.35
2023-03-31T07:00:58.871Z,4.53
2023-03-31T07:03:25.810Z,2.55
2023-03-31T07:05:54.198Z,3.72
2023-03-31T07:08:21.878Z,4.72
2023-03-31T07:10:50.198Z,3.30
2023-03-31T07:13:18.085Z,4.75
2023-03-31T07:15:47.636Z,1.92
2023-03-31T07:18:15.717Z,2.45
2023-03-31T07:20:43.397Z,3.65
2023-03-31T07:23:10.447Z,1.83
2023-03-31T07:25:37.242Z,2.78
2023-03-31T07:28:04.605Z,1.48
2023-03-31T07:30:31.316Z,2.45
2023-03-31T07:32:58.062Z,2.35
2023-03-31T07:35:25.003Z,3.67
2023-03-31T07:37:51.975Z,2.38
2023-03-31T07:40:22.129Z,4.38
2023-03-31T07:42:49.550Z,7.07
2023-03-31T07:45:16.883Z,6.57
2023-03-31T07:47:46.300Z,4.78
2023-03-31T07:50:14.997Z,4.28
2023-03-31T07:52:44.116Z,10.60
2023-03-31T07:55:13.042Z,8.13
2023-03-31T07:57:40.582Z,7.15
2023-03-31T08:00:10.757Z,3.10
2023-03-31T08:02:37.961Z,8.70
2023-03-31T08:05:07.211Z,6.32
2023-03-31T08:07:36.103Z,6.40
2023-03-31T08:10:05.235Z,5.60
2023-03-31T08:12:31.990Z,6.78
2023-03-31T08:14:58.747Z,7.60
2023-03-31T08:17:25.635Z,6.82
2023-03-31T08:19:53.562Z,6.90
2023-03-31T08:22:23.222Z,6.10
2023-03-31T08:24:49.885Z,13.30
2023-03-31T08:27:17.016Z,12.50
2023-03-31T08:29:43.833Z,8.90
2023-03-31T08:32:10.588Z,7.00
2023-03-31T08:34:38.104Z,12.20
2023-03-31T08:37:06.027Z,6.50
2023-03-31T08:39:38.982Z,6.55
2023-03-31T08:42:25.507Z,8.45
2023-03-31T08:44:59.622Z,6.53
2023-03-31T08:47:27.818Z,4.80
2023-03-31T08:49:59.312Z,6.93
2023-03-31T08:53:04.139Z,5.13
2023-03-31T08:55:52.270Z,5.10
2023-03-31T08:58:41.387Z,7.60
2023-03-31T09:01:23.785Z,6.03
2023-03-31T09:04:12.651Z,7.15
2023-03-31T09:06:43.467Z,5.78
2023-03-31T09:09:26.916Z,5.00
2023-03-31T09:11:56.548Z,10.00
2023-03-31T09:14:31.630Z,5.93
2023-03-31T09:17:25.338Z,6.45
2023-03-31T09:19:58.984Z,7.50
2023-03-31T09:22:30.392Z,11.43
2023-03-31T09:25:04.468Z,8.38
2023-03-31T09:27:32.957Z,8.05
2023-03-31T09:30:10.886Z,6.25
2023-03-31T09:32:38.490Z,10.38
2023-03-31T09:35:25.865Z,9.27
2023-03-31T09:37:53.902Z,13.48
2023-03-31T09:40:23.240Z,9.30
2023-03-31T09:42:57.073Z,10.10
2023-03-31T09:45:23.842Z,10.83
2023-03-31T09:47:53.006Z,9.63
2023-03-31T09:50:25.111Z,8.77
2023-03-31T09:52:59.652Z,9.35
2023-03-31T09:55:42.944Z,13.27
2023-03-31T09:58:14.165Z,11.15
2023-03-31T10:00:42.816Z,7.10
2023-03-31T10:03:13.363Z,10.85
2023-03-31T10:05:49.677Z,10.10
2023-03-31T10:08:19.921Z,15.02
2023-03-31T10:10:55.790Z,8.27
2023-03-31T10:13:29.213Z,10.00
2023-03-31T10:16:04.137Z,6.25
2023-03-31T10:18:36.635Z,7.47
2023-03-31T10:21:05.870Z,10.25
2023-03-31T10:23:34.633Z,10.20
2023-03-31T10:26:02.281Z,11.48
2023-03-31T10:28:33.114Z,8.27
2023-03-31T10:31:04.188Z,6.78
2023-03-31T10:33:34.678Z,6.78
2023-03-31T10:36:07.925Z,6.78
2023-03-31T10:38:40.647Z,8.48
2023-03-31T10:41:07.746Z,9.43
2023-03-31T10:43:44.160Z,9.52
2023-03-31T10:46:12.466Z,8.48
2023-03-31T10:48:41.544Z,6.93
2023-03-31T10:51:14.175Z,7.55
2023-03-31T10:53:47.196Z,9.30
2023-03-31T10:56:42.038Z,9.80
2023-03-31T10:59:33.626Z,3.80
2023-03-31T11:02:31.743Z,4.85
2023-03-31T11:05:23.475Z,3.47
2023-03-31T11:08:22.727Z,3.10
2023-03-31T11:10:52.594Z,1.23
2023-03-31T11:14:04.056Z,1.15
2023-03-31T11:16:41.520Z,2.92
2023-03-31T11:19:30.647Z,1.60
2023-03-31T11:22:15.436Z,2.78
2023-03-31T11:25:08.124Z,1.52
2023-03-31T11:28:09.331Z,3.30
2023-03-31T11:30:49.074Z,3.45
2023-03-31T11:33:39.994Z,2.92
2023-03-31T11:36:57.453Z,1.65
2023-03-31T11:40:01.773Z,2.22
2023-03-31T11:42:40.766Z,1.38
2023-03-31T11:45:34.934Z,1.00
2023-03-31T11:48:07.501Z,5.30
2023-03-31T11:50:38.618Z,2.80
2023-03-31T11:53:25.624Z,3.83
2023-03-31T11:55:55.449Z,4.20
2023-03-31T11:58:33.874Z,6.82
2023-03-31T12:01:05.512Z,3.97
2023-03-31T12:04:23.569Z,3.10
2023-03-31T12:06:50.593Z,3.72
2023-03-31T12:09:40.927Z,4.30
2023-03-31T12:12:22.818Z,5.53
2023-03-31T12:14:57.556Z,7.00
2023-03-31T12:20:10.634Z,8.88
2023-03-31T12:22:44.660Z,2.72
2023-03-31T12:25:17.315Z,4.07
2023-03-31T12:27:49.508Z,5.28
2023-03-31T12:30:39.243Z,6.60
2023-03-31T12:33:45.149Z,6.68
2023-03-31T12:36:26.855Z,6.72
2023-03-31T12:39:29.449Z,3.78
2023-03-31T12:42:02.116Z,5.50
2023-03-31T12:44:39.631Z,6.03
2023-03-31T12:47:18.708Z,10.20
2023-03-31T12:50:11.926Z,12.55
2023-03-31T12:53:15.354Z,8.73
2023-03-31T12:55:52.033Z,7.03
2023-03-31T12:58:25.047Z,5.07
2023-03-31T13:01:05.858Z,7.80
2023-03-31T13:03:35.464Z,4.88
2023-03-31T13:06:03.865Z,3.97
2023-03-31T13:08:50.002Z,1.85
2023-03-31T13:11:20.908Z,3.28
2023-03-31T13:14:00.624Z,4.10
2023-03-31T13:16:29.181Z,3.88
2023-03-31T13:18:56.449Z,2.33
2023-03-31T13:21:24.199Z,3.97
2023-03-31T13:23:51.323Z,2.80
2023-03-31T13:26:38.606Z,4.13
2023-03-31T13:29:14.587Z,2.03
2023-03-31T13:32:00.313Z,1.73
2023-03-31T13:34:42.740Z,1.70
2023-03-31T13:37:24.797Z,3.78
2023-03-31T13:40:26.954Z,3.75
2023-03-31T13:43:27.119Z,5.60
2023-03-31T13:46:15.789Z,3.90
2023-03-31T13:49:11.077Z,2.70
2023-03-31T13:51:55.294Z,7.70
2023-03-31T13:54:52.740Z,4.07
2023-03-31T13:57:22.253Z,3.22
2023-03-31T14:00:14.587Z,6.07
2023-03-31T14:02:53.675Z,3.95
2023-03-31T14:05:40.580Z,6.07
2023-03-31T14:08:17.589Z,3.45
2023-03-31T14:10:44.313Z,6.97
2023-03-31T14:13:12.305Z,4.60
2023-03-31T14:15:58.849Z,7.07
2023-03-31T14:18:27.364Z,6.47
2023-03-31T14:21:21.520Z,4.63
2023-03-31T14:24:18.030Z,4.78
2023-03-31T14:26:46.935Z,2.90
2023-03-31T14:29:29.846Z,3.28
2023-03-31T14:32:39.239Z,4.05
2023-03-31T14:35:26.585Z,2.67
2023-03-31T14:37:55.188Z,1.45
2023-03-31T14:40:22.440Z,3.95
2023-03-31T14:42:51.821Z,2.03
2023-03-31T14:45:25.156Z,2.88
2023-03-31T14:47:57.180Z,2.15
2023-03-31T14:50:31.318Z,2.47
2023-03-31T14:52:58.111Z,0.57
2023-03-31T14:55:39.256Z,2.75
2023-03-31T14:58:06.527Z,4.63
2023-03-31T15:00:33.983Z,2.50
2023-03-31T15:03:01.965Z,4.10
2023-03-31T15:05:33.981Z,5.00
2023-03-31T15:08:06.355Z,1.67
2023-03-31T15:10:37.302Z,3.38
2023-03-31T15:13:19.336Z,3.47
2023-03-31T15:15:46.276Z,3.75
2023-03-31T15:18:13.909Z,2.13
2023-03-31T15:20:42.351Z,4.95
2023-03-31T15:23:27.446Z,6.00
2023-03-31T15:28:39.604Z,4.10
2023-03-31T15:31:10.573Z,3.35
2023-03-31T15:33:41.451Z,2.70
2023-03-31T15:36:10.553Z,6.20
2023-03-31T15:38:37.257Z,4.35
2023-03-31T15:41:04.337Z,2.60
2023-03-31T15:43:33.521Z,3.97
2023-03-31T15:46:01.885Z,4.25
2023-03-31T15:48:36.691Z,7.22
2023-03-31T15:53:53.948Z,5.50
2023-03-31T15:56:44.362Z,5.95
2023-03-31T16:02:36.715Z,4.97
2023-03-31T16:05:08.122Z,5.78
2023-03-31T16:07:37.474Z,5.05
2023-03-31T16:10:15.424Z,2.47
2023-03-31T16:12:56.255Z,1.35
2023-03-31T16:15:31.421Z,1.75
2023-03-31T16:18:02.746Z,2.90
2023-03-31T16:20:32.819Z,0.77
2023-03-31T16:23:00.501Z,1.00
2023-03-31T16:25:29.982Z,0.70
2023-03-31T16:27:59.877Z,2.88
2023-03-31T16:30:41.390Z,3.95
2023-03-31T16:33:27.630Z,3.10
2023-03-31T16:35:58.826Z,5.55
2023-03-31T16:38:27.706Z,5.70
2023-03-31T16:40:56.396Z,4.40
2023-03-31T16:43:24.496Z,7.20
2023-03-31T16:45:56.416Z,3.50
2023-03-31T16:48:24.865Z,4.22
2023-03-31T16:50:54.221Z,6.03
2023-03-31T16:53:23.737Z,3.95
2023-03-31T16:55:50.560Z,6.60
2023-03-31T16:58:17.908Z,4.13
2023-03-31T17:00:45.967Z,5.15
2023-03-31T17:03:14.777Z,3.25
2023-03-31T17:05:43.774Z,4.95
2023-03-31T17:08:11.988Z,5.07
2023-03-31T17:10:40.289Z,3.85
2023-03-31T17:13:07.955Z,4.45
2023-03-31T17:15:37.824Z,8.77
2023-03-31T17:18:04.900Z,6.47
2023-03-31T17:20:31.750Z,4.07
2023-03-31T17:22:58.725Z,6.28
2023-03-31T17:25:25.663Z,8.27
2023-03-31T17:27:52.479Z,4.00
2023-03-31T17:30:19.385Z,5.00
2023-03-31T17:32:46.359Z,3.50
2023-03-31T17:35:20.373Z,5.88
2023-03-31T17:37:53.415Z,3.30
2023-03-31T17:40:24.691Z,6.50
2023-03-31T17:42:52.522Z,6.32
2023-03-31T17:45:19.233Z,2.38
2023-03-31T17:47:46.352Z,1.30
2023-03-31T17:50:13.434Z,4.55
2023-03-31T17:52:41.017Z,7.05
2023-03-31T17:55:08.160Z,2.55
2023-03-31T17:57:37.036Z,5.72
2023-03-31T18:00:05.989Z,5.40
2023-03-31T18:02:32.711Z,9.20
2023-03-31T18:05:00.631Z,3.33
2023-03-31T18:07:27.429Z,7.35
2023-03-31T18:09:54.049Z,3.30
2023-03-31T18:12:20.814Z,4.00
2023-03-31T18:14:48.043Z,5.50
2023-03-31T18:17:15.154Z,3.97
2023-03-31T18:19:42.868Z,5.10
2023-03-31T18:22:10.176Z,5.05
2023-03-31T18:24:38.396Z,3.65
2023-03-31T18:27:05.552Z,2.33
2023-03-31T18:29:32.461Z,2.72
2023-03-31T18:31:59.405Z,3.13
2023-03-31T18:34:26.759Z,5.07
2023-03-31T18:36:53.977Z,4.25
2023-03-31T18:39:20.712Z,5.13
2023-03-31T18:41:48.836Z,6.53
2023-03-31T18:44:18.738Z,2.63
2023-03-31T18:46:45.791Z,3.58
2023-03-31T18:49:14.824Z,4.95
2023-03-31T18:51:41.759Z,5.18
2023-03-31T18:54:08.475Z,6.22
2023-03-31T18:56:35.360Z,2.50
2023-03-31T18:59:04.792Z,5.68
2023-03-31T19:01:32.697Z,4.78
2023-03-31T19:03:59.550Z,5.45
2023-03-31T19:06:27.210Z,3.83
2023-03-31T19:08:56.556Z,3.88
2023-03-31T19:11:23.869Z,5.90
2023-03-31T19:13:51.907Z,3.50
2023-03-31T19:16:18.970Z,4.80
2023-03-31T19:18:45.933Z,6.25
2023-03-31T19:21:13.113Z,6.60
2023-03-31T19:23:39.920Z,6.45
2023-03-31T19:26:07.174Z,7.22
2023-03-31T19:28:33.920Z,7.07
2023-03-31T19:31:04.956Z,7.05
2023-03-31T19:33:31.777Z,7.15
2023-03-31T19:35:59.114Z,5.13
2023-03-31T19:38:26.912Z,6.78
2023-03-31T19:40:53.852Z,3.00
2023-03-31T19:43:23.341Z,11.00
2023-03-31T19:45:53.404Z,4.85
2023-03-31T19:48:21.297Z,5.55
2023-03-31T19:50:56.272Z,5.30
2023-03-31T19:53:23.357Z,4.15
2023-03-31T19:56:08.932Z,7.00
2023-03-31T19:58:36.529Z,6.88
2023-03-31T20:01:06.469Z,6.38
2023-03-31T20:03:33.961Z,5.07
2023-03-31T20:06:05.932Z,5.45
2023-03-31T20:08:34.114Z,6.85
2023-03-31T20:11:03.217Z,8.45
2023-03-31T20:13:32.270Z,5.55
2023-03-31T20:16:00.701Z,3.78
2023-03-31T20:18:28.013Z,3.88
2023-03-31T20:21:05.482Z,4.43
2023-03-31T20:23:33.117Z,5.30
2023-03-31T20:26:02.078Z,2.90
2023-03-31T20:28:29.750Z,2.90
2023-03-31T20:30:56.496Z,3.15
2023-03-31T20:33:24.040Z,4.47
2023-03-31T20:36:01.490Z,3.92
2023-03-31T20:38:28.579Z,4.43
2023-03-31T20:40:55.506Z,3.05
2023-03-31T20:43:22.485Z,5.38
2023-03-31T20:45:57.835Z,2.70
2023-03-31T20:48:25.485Z,4.05
2023-03-31T20:50:52.207Z,2.95
2023-03-31T20:53:18.961Z,5.45
2023-03-31T20:55:46.290Z,3.20
2023-03-31T20:58:13.284Z,5.47
2023-03-31T21:00:40.279Z,6.78
2023-03-31T21:03:07.531Z,5.05
2023-03-31T21:05:44.843Z,2.35
2023-03-31T21:08:12.282Z,7.20
2023-03-31T21:10:43.480Z,4.07
2023-03-31T21:13:11.682Z,10.77
2023-03-31T21:15:38.413Z,8.05
2023-03-31T21:18:06.384Z,8.75
2023-03-31T21:20:33.934Z,4.95
2023-03-31T21:23:01.250Z,5.65
2023-03-31T21:25:27.951Z,6.80
2023-03-31T21:27:54.618Z,2.75
2023-03-31T21:30:22.042Z,5.22
2023-03-31T21:32:48.725Z,2.38
2023-03-31T21:35:17.078Z,1.88
2023-03-31T21:37:44.901Z,2.17
2023-03-31T21:40:14.396Z,2.03
2023-03-31T21:42:43.453Z,3.08
2023-03-31T21:45:17.306Z,4.28
2023-03-31T21:47:44.134Z,2.20
2023-03-31T21:50:12.587Z,5.32
2023-03-31T21:53:04.153Z,2.30
2023-03-31T21:55:59.179Z,2.70
2023-03-31T21:58:37.255Z,2.35
2023-03-31T22:01:19.133Z,1.73
2023-03-31T22:04:13.809Z,1.13
2023-03-31T22:06:46.070Z,4.65
2023-03-31T22:09:19.533Z,1.75
2023-03-31T22:11:46.861Z,2.85
2023-03-31T22:14:22.426Z,1.40
2023-03-31T22:16:49.120Z,2.67
2023-03-31T22:19:16.106Z,4.10
2023-03-31T22:21:43.787Z,3.72
2023-03-31T22:24:13.211Z,3.30
2023-03-31T22:26:39.898Z,3.40
2023-03-31T22:29:06.596Z,3.50
2023-03-31T22:31:33.515Z,2.10
2023-03-31T22:34:00.407Z,1.60
2023-03-31T22:36:27.260Z,2.35
2023-03-31T22:38:54.060Z,3.83
2023-03-31T22:41:20.726Z,4.15
2023-03-31T22:43:47.423Z,1.80
2023-03-31T22:46:14.418Z,2.15
2023-03-31T22:48:41.232Z,4.00
2023-03-31T22:51:09.044Z,2.47
2023-03-31T22:53:35.972Z,4.93
2023-03-31T22:56:08.498Z,5.25
2023-03-31T22:58:35.450Z,2.45
2023-03-31T23:01:02.413Z,1.92
2023-03-31T23:03:29.341Z,7.25
2023-03-31T23:05:56.263Z,1.05
2023-03-31T23:08:23.262Z,2.00
2023-03-31T23:10:57.702Z,3.45
2023-03-31T23:13:25.984Z,1.15
2023-03-31T23:15:52.729Z,1.40
2023-03-31T23:18:19.663Z,3.38
2023-03-31T23:20:46.609Z,1.17
2023-03-31T23:23:13.301Z,3.67
2023-03-31T23:25:40.229Z,1.67
2023-03-31T23:28:07.161Z,2.80
2023-03-31T23:30:33.856Z,3.33
2023-03-31T23:33:00.512Z,3.00
2023-03-31T23:35:27.364Z,2.88
2023-03-31T23:37:54.066Z,2.15
2023-03-31T23:40:21.395Z,3.53
2023-03-31T23:42:48.061Z,1.42
2023-03-31T23:45:14.947Z,1.92
2023-03-31T23:47:42.610Z,7.38
2023-03-31T23:50:10.021Z,4.63
2023-03-31T23:52:36.761Z,2.95
2023-03-31T23:55:04.375Z,5.68
2023-03-31T23:57:31.380Z,3.67
2023-03-31T23:59:58.154Z,7.18
